Time;durP1;ratioP1;P1;durP2;ratioP2;P2;SDS_P1;SDS_P2;PMS_P1;PMS_P2;Temp;Humidity;BMP_temperature;BMP_pressure;BME280_temperature;BME280_humidity;BME280_pressure;Samples;Min_cycle;Max_cycle;Signal;HPM_P1;HPM_P2
2022/10/03 00:00:15;;;;;;;13.73;1.75;;;11.10;99.90;;;;;;5118204;27;20403;-74
2022/10/03 00:03:17;;;;;;;12.82;1.70;;;11.20;99.90;;;;;;5128009;27;20449;-74
2022/10/03 00:06:01;;;;;;;11.20;1.63;;;11.20;99.90;;;;;;5127456;27;20772;-74
2022/10/03 00:08:46;;;;;;;13.05;1.88;;;11.20;99.90;;;;;;5128828;27;20949;-73
2022/10/03 00:11:39;;;;;;;12.73;1.50;;;11.20;99.90;;;;;;5096223;28;20420;-74
2022/10/03 00:14:08;;;;;;;12.25;1.48;;;11.10;99.90;;;;;;5111205;27;20478;-75
2022/10/03 00:16:58;;;;;;;8.48;1.42;;;11.10;99.90;;;;;;5129148;27;20395;-73
2022/10/03 00:20:03;;;;;;;13.02;1.60;;;11.10;99.90;;;;;;5119556;27;20423;-74
2022/10/03 00:22:54;;;;;;;14.43;1.80;;;11.10;99.90;;;;;;5102400;27;20443;-73
2022/10/03 00:25:57;;;;;;;10.90;1.52;;;11.10;99.90;;;;;;5124210;27;20408;-75
2022/10/03 00:28:43;;;;;;;14.45;2.10;;;11.10;99.90;;;;;;5088440;28;20464;-74
2022/10/03 00:31:15;;;;;;;13.02;1.67;;;11.20;99.90;;;;;;5107894;28;20420;-74
2022/10/03 00:33:50;;;;;;;11.23;2.10;;;11.20;99.90;;;;;;5107953;27;20967;-74
2022/10/03 00:36:43;;;;;;;10.07;1.20;;;11.20;99.90;;;;;;5106980;27;20404;-74
2022/10/03 00:39:26;;;;;;;11.73;1.60;;;11.30;99.90;;;;;;5098368;28;20416;-74
2022/10/03 00:42:07;;;;;;;15.25;1.88;;;11.30;99.90;;;;;;5113549;27;20410;-73
2022/10/03 00:44:47;;;;;;;13.13;2.10;;;11.30;99.90;;;;;;5128148;27;20803;-73
2022/10/03 00:47:32;;;;;;;10.02;1.65;;;11.30;99.90;;;;;;5128810;27;20455;-74
2022/10/03 00:50:06;;;;;;;12.65;1.77;;;11.40;99.90;;;;;;5127292;27;20946;-73
2022/10/03 00:52:56;;;;;;;10.13;1.23;;;11.40;99.90;;;;;;5112796;27;20404;-74
2022/10/03 00:55:48;;;;;;;11.68;1.60;;;11.40;99.90;;;;;;5107900;28;20405;-74
2022/10/03 00:58:21;;;;;;;9.98;1.63;;;11.40;99.90;;;;;;5108312;28;20541;-73
2022/10/03 01:00:51;;;;;;;12.32;1.75;;;11.40;99.90;;;;;;5106774;28;21031;-74
2022/10/03 01:03:32;;;;;;;10.18;1.20;;;11.50;99.90;;;;;;5108212;28;20397;-73
2022/10/03 01:06:25;;;;;;;10.50;1.17;;;11.50;99.90;;;;;;5108583;28;20396;-74
2022/10/03 01:09:19;;;;;;;10.75;1.27;;;11.50;99.90;;;;;;5108588;27;20404;-74
2022/10/03 01:11:47;;;;;;;13.00;1.77;;;11.40;99.90;;;;;;5108721;27;20476;-74
2022/10/03 01:14:19;;;;;;;11.20;1.73;;;11.40;99.90;;;;;;5109203;28;20408;-74
2022/10/03 01:17:16;;;;;;;10.75;1.27;;;11.30;99.90;;;;;;5090540;28;20408;-74
2022/10/03 01:20:15;;;;;;;10.13;1.45;;;11.40;99.90;;;;;;5099759;28;20412;-74
2022/10/03 01:23:00;;;;;;;11.35;1.30;;;11.40;99.90;;;;;;5098212;27;20408;-73
2022/10/03 01:25:25;;;;;;;10.77;1.10;;;11.40;99.90;;;;;;5108854;28;20407;-74
2022/10/03 01:30:54;;;;;;;12.75;1.40;;;11.20;99.90;;;;;;5097128;28;20488;-74
2022/10/03 01:33:42;;;;;;;9.18;1.10;;;11.20;99.90;;;;;;5123968;28;20394;-73
2022/10/03 01:36:24;;;;;;;12.27;1.40;;;11.10;99.90;;;;;;5115369;27;20419;-74
2022/10/03 01:39:11;;;;;;;13.88;1.50;;;11.10;99.90;;;;;;5108191;28;20545;-73
2022/10/03 01:41:57;;;;;;;11.50;1.10;;;11.10;99.90;;;;;;5108124;28;20910;-74
2022/10/03 01:44:29;;;;;;;9.87;1.37;;;11.10;99.90;;;;;;5108127;28;20412;-73
2022/10/03 01:47:08;;;;;;;8.63;1.20;;;11.20;99.90;;;;;;5107305;28;20451;-74
2022/10/03 01:49:45;;;;;;;8.70;1.35;;;11.20;99.90;;;;;;5108936;28;20968;-74
2022/10/03 01:52:32;;;;;;;11.38;1.40;;;11.30;99.90;;;;;;5109875;28;20404;-74
2022/10/03 01:55:07;;;;;;;10.20;1.25;;;11.30;99.90;;;;;;5113121;27;20466;-74
2022/10/03 01:57:45;;;;;;;10.57;1.10;;;11.30;99.90;;;;;;5113362;27;20404;-74
2022/10/03 02:00:22;;;;;;;10.03;1.20;;;11.40;99.90;;;;;;5112268;27;20400;-74
2022/10/03 02:03:19;;;;;;;13.65;1.10;;;11.40;99.90;;;;;;5112454;27;20444;-74
2022/10/03 02:06:03;;;;;;;9.65;1.30;;;11.50;99.90;;;;;;5112597;27;20425;-74
2022/10/03 02:09:02;;;;;;;11.57;1.17;;;11.50;99.90;;;;;;5112113;27;20408;-74
2022/10/03 02:11:34;;;;;;;11.43;1.30;;;11.50;99.90;;;;;;5110704;27;20408;-74
2022/10/03 02:14:30;;;;;;;13.90;1.50;;;11.50;99.90;;;;;;5112666;27;20419;-74
2022/10/03 02:17:33;;;;;;;10.27;1.35;;;11.50;99.90;;;;;;5110295;27;20428;-74
2022/10/03 02:20:10;;;;;;;11.52;1.15;;;11.50;99.90;;;;;;5111551;28;20408;-74
2022/10/03 02:22:50;;;;;;;11.13;1.45;;;11.60;99.90;;;;;;5111499;28;20428;-74
2022/10/03 02:25:25;;;;;;;10.25;1.00;;;11.60;99.90;;;;;;5113653;27;20449;-73
2022/10/03 02:28:07;;;;;;;12.73;1.48;;;11.70;99.90;;;;;;5120589;27;20415;-74
2022/10/03 02:31:03;;;;;;;11.43;1.30;;;11.70;99.90;;;;;;5117416;27;20923;-74
2022/10/03 02:33:43;;;;;;;9.95;1.35;;;11.70;99.90;;;;;;5130565;27;20410;-74
2022/10/03 02:36:34;;;;;;;12.90;1.40;;;11.70;99.90;;;;;;5108541;27;20489;-74
2022/10/03 02:39:23;;;;;;;9.98;1.60;;;11.80;99.90;;;;;;5108156;27;20408;-74
2022/10/03 02:42:26;;;;;;;10.23;1.05;;;11.80;99.90;;;;;;5123946;27;20485;-73
2022/10/03 02:45:28;;;;;;;10.57;1.17;;;11.90;99.90;;;;;;5113081;27;20961;-74
2022/10/03 02:48:18;;;;;;;10.98;1.40;;;11.90;99.90;;;;;;5114715;27;20458;-74
2022/10/03 02:51:01;;;;;;;11.30;1.30;;;11.90;99.90;;;;;;5114599;27;20427;-74
2022/10/03 02:53:30;;;;;;;12.80;1.30;;;11.90;99.90;;;;;;5120882;27;20412;-74
2022/10/03 02:56:33;;;;;;;10.75;1.30;;;11.80;99.90;;;;;;5112914;27;20396;-74
2022/10/03 02:59:24;;;;;;;10.68;1.83;;;11.80;99.90;;;;;;5128496;27;20409;-73
2022/10/03 03:02:09;;;;;;;11.00;1.45;;;11.70;99.90;;;;;;5130374;27;20436;-74
2022/10/03 03:05:08;;;;;;;11.75;1.35;;;11.70;99.90;;;;;;5128987;27;20884;-74
2022/10/03 03:07:58;;;;;;;12.90;1.20;;;11.60;99.90;;;;;;5115817;27;20440;-74
2022/10/03 03:10:30;;;;;;;9.93;1.65;;;11.50;99.90;;;;;;5110051;28;20424;-74
2022/10/03 03:13:21;;;;;;;10.82;1.17;;;11.50;99.90;;;;;;5130056;27;20437;-73
2022/10/03 03:16:17;;;;;;;8.80;1.42;;;11.50;99.90;;;;;;5130296;27;20900;-74
2022/10/03 03:19:12;;;;;;;12.13;1.30;;;11.40;99.90;;;;;;5097702;27;20739;-74
2022/10/03 03:21:37;;;;;;;10.68;1.38;;;11.30;99.90;;;;;;5098751;27;20499;-74
2022/10/03 03:24:36;;;;;;;10.57;1.20;;;11.30;99.90;;;;;;5124678;27;20933;-73
2022/10/03 03:27:21;;;;;;;13.20;1.42;;;11.30;99.90;;;;;;5128686;27;20486;-74
2022/10/03 03:30:05;;;;;;;12.25;1.67;;;11.20;99.90;;;;;;5124091;27;20428;-74
2022/10/03 03:32:33;;;;;;;7.30;0.90;;;11.20;99.90;;;;;;5109971;28;20778;-74
2022/10/03 03:35:36;;;;;;;11.52;1.38;;;11.10;99.90;;;;;;5109473;28;20427;-74
2022/10/03 03:38:02;;;;;;;15.40;1.88;;;11.10;99.90;;;;;;5105749;27;20403;-74
2022/10/03 03:40:41;;;;;;;9.65;1.02;;;11.20;99.90;;;;;;5130208;27;20397;-74
2022/10/03 03:43:22;;;;;;;7.05;1.17;;;11.20;99.90;;;;;;5119765;27;20487;-75
2022/10/03 03:46:05;;;;;;;11.00;1.30;;;11.10;99.90;;;;;;5121064;27;20394;-73
2022/10/03 03:48:48;;;;;;;10.43;1.27;;;11.10;99.90;;;;;;5109309;27;20998;-75
2022/10/03 03:51:22;;;;;;;9.65;1.30;;;11.00;99.90;;;;;;5114501;28;20428;-74
2022/10/03 03:54:06;;;;;;;10.15;1.35;;;11.00;99.90;;;;;;5119675;27;20415;-74
2022/10/03 03:56:44;;;;;;;8.83;1.13;;;11.00;99.90;;;;;;5104800;27;20477;-74
2022/10/03 03:59:49;;;;;;;10.63;1.30;;;11.00;99.90;;;;;;5102982;28;20404;-74
2022/10/03 04:02:30;;;;;;;9.40;1.30;;;11.00;99.90;;;;;;5112487;28;20408;-74
2022/10/03 04:04:59;;;;;;;7.13;1.40;;;11.00;99.90;;;;;;5121037;27;20493;-74
2022/10/03 04:08:14;;;;;;;10.68;1.42;;;11.00;99.90;;;;;;5115502;28;20458;-74
2022/10/03 04:10:52;;;;;;;9.80;1.10;;;11.00;99.90;;;;;;5086818;28;20478;-74
2022/10/03 04:13:26;;;;;;;8.55;1.10;;;11.00;99.90;;;;;;5086727;28;20485;-74
2022/10/03 04:19:52;;;;;;;10.37;1.30;;;11.10;99.90;;;;;;5101434;27;20764;-74
2022/10/03 04:22:44;;;;;;;9.32;0.95;;;11.10;99.90;;;;;;5097375;27;20765;-74
2022/10/03 04:25:25;;;;;;;10.52;1.55;;;11.10;99.90;;;;;;5098998;28;20420;-74
2022/10/03 04:28:18;;;;;;;9.00;1.37;;;11.10;99.90;;;;;;5109072;28;20465;-74
2022/10/03 04:31:19;;;;;;;10.35;1.38;;;11.00;99.90;;;;;;5117334;27;20477;-74
2022/10/03 04:34:16;;;;;;;8.67;1.03;;;11.00;99.90;;;;;;5119344;27;20405;-74
2022/10/03 04:37:12;;;;;;;6.88;1.00;;;11.00;99.90;;;;;;5119484;28;20408;-74
2022/10/03 04:39:50;;;;;;;9.45;1.05;;;11.00;99.90;;;;;;5102196;28;20400;-74
2022/10/03 04:42:27;;;;;;;7.50;1.13;;;10.90;99.90;;;;;;5110301;28;20909;-75
2022/10/03 04:44:52;;;;;;;15.50;2.15;;;10.90;99.90;;;;;;5110376;28;20397;-73
2022/10/03 04:47:38;;;;;;;7.90;1.10;;;10.90;99.90;;;;;;5110517;27;20912;-74
2022/10/03 04:50:10;;;;;;;10.65;1.55;;;10.90;99.90;;;;;;5107963;27;20525;-75
2022/10/03 04:53:28;;;;;;;8.95;1.10;;;10.80;99.90;;;;;;5108163;27;20416;-74
2022/10/03 04:56:11;;;;;;;12.18;1.50;;;10.80;99.90;;;;;;5090712;27;20770;-74
2022/10/03 04:59:08;;;;;;;8.10;1.13;;;10.80;99.90;;;;;;5121129;27;20429;-75
2022/10/03 05:01:53;;;;;;;7.80;1.02;;;10.70;99.90;;;;;;5127493;27;20478;-74
2022/10/03 05:04:31;;;;;;;12.07;1.10;;;10.70;99.90;;;;;;5109321;27;20503;-74
2022/10/03 05:07:14;;;;;;;9.60;1.30;;;10.60;99.90;;;;;;5117918;27;20959;-75
2022/10/03 05:09:55;;;;;;;10.57;1.50;;;10.60;99.90;;;;;;5115079;27;20530;-74
2022/10/03 05:12:53;;;;;;;9.55;1.13;;;10.60;99.90;;;;;;5128240;27;20411;-74
2022/10/03 05:15:27;;;;;;;11.55;1.27;;;10.60;99.90;;;;;;5118053;27;20751;-74
2022/10/03 05:18:18;;;;;;;12.45;1.30;;;10.60;99.90;;;;;;5124960;27;20477;-75
2022/10/03 05:21:04;;;;;;;11.35;1.17;;;10.60;99.90;;;;;;5127927;27;20411;-74
2022/10/03 05:24:07;;;;;;;8.93;1.48;;;10.50;99.90;;;;;;5128270;27;20411;-74
2022/10/03 05:26:58;;;;;;;8.32;1.42;;;10.50;99.90;;;;;;5107400;28;21023;-74
2022/10/03 05:29:39;;;;;;;9.97;1.37;;;10.40;99.90;;;;;;5107912;28;20823;-74
2022/10/03 05:32:26;;;;;;;12.68;1.60;;;10.40;99.90;;;;;;5094534;28;20773;-74
2022/10/03 05:35:27;;;;;;;10.05;1.30;;;10.40;99.90;;;;;;5121657;27;20945;-74
2022/10/03 05:38:11;;;;;;;8.98;1.13;;;10.40;99.90;;;;;;5119859;27;20414;-74
2022/10/03 05:40:41;;;;;;;9.05;1.25;;;10.40;99.90;;;;;;5108252;28;20415;-74
2022/10/03 05:43:23;;;;;;;10.10;1.57;;;10.40;99.90;;;;;;5107604;28;20401;-73
2022/10/03 05:46:01;;;;;;;10.88;1.65;;;10.40;99.90;;;;;;5108233;28;20497;-73
2022/10/03 05:48:44;;;;;;;14.35;1.45;;;10.40;99.90;;;;;;5097316;28;20511;-74
2022/10/03 05:51:52;;;;;;;9.90;1.30;;;10.40;99.90;;;;;;5101929;28;20435;-75
2022/10/03 05:54:29;;;;;;;11.88;1.42;;;10.40;99.90;;;;;;5105827;28;20779;-73
2022/10/03 05:57:28;;;;;;;10.45;1.52;;;10.40;99.90;;;;;;5107023;28;20405;-73
2022/10/03 06:00:14;;;;;;;9.80;1.63;;;10.40;99.90;;;;;;5106560;28;20420;-73
2022/10/03 06:03:21;;;;;;;9.75;1.10;;;10.50;99.90;;;;;;5107915;28;21017;-75
2022/10/03 06:06:19;;;;;;;13.25;1.50;;;10.50;99.90;;;;;;5124322;27;20888;-73
2022/10/03 06:08:54;;;;;;;8.88;1.88;;;10.50;99.90;;;;;;5127666;27;20407;-74
2022/10/03 06:11:49;;;;;;;10.23;1.40;;;10.50;99.90;;;;;;5127682;27;20426;-73
2022/10/03 06:14:38;;;;;;;9.77;1.38;;;10.50;99.90;;;;;;5126408;27;20495;-74
2022/10/03 06:17:33;;;;;;;11.47;1.30;;;10.50;99.90;;;;;;5127368;27;20416;-74
2022/10/03 06:20:21;;;;;;;10.48;1.25;;;10.60;99.90;;;;;;5127345;27;20514;-73
2022/10/03 06:23:05;;;;;;;11.82;1.80;;;10.60;99.90;;;;;;5105979;28;20422;-74
2022/10/03 06:25:51;;;;;;;11.57;2.50;;;10.60;99.90;;;;;;5126012;27;20415;-74
2022/10/03 06:28:42;;;;;;;9.00;1.27;;;10.70;99.90;;;;;;5126479;27;20399;-74
2022/10/03 06:31:46;;;;;;;9.90;1.48;;;10.60;99.90;;;;;;5126016;27;21053;-73
2022/10/03 06:34:54;;;;;;;9.30;1.53;;;10.70;99.90;;;;;;5108770;27;20406;-73
2022/10/03 06:38:03;;;;;;;9.43;1.55;;;10.60;99.90;;;;;;5106626;27;20402;-73
2022/10/03 06:40:51;;;;;;;12.30;1.63;;;10.60;99.90;;;;;;5099153;27;20411;-73
2022/10/03 06:43:22;;;;;;;9.77;1.48;;;10.60;99.90;;;;;;5111011;28;20491;-74
2022/10/03 06:46:24;;;;;;;10.82;1.90;;;10.70;99.90;;;;;;5110909;28;20479;-74
2022/10/03 06:49:26;;;;;;;12.82;1.98;;;10.70;99.90;;;;;;5110003;28;20447;-73
2022/10/03 06:52:17;;;;;;;9.82;1.20;;;10.70;99.90;;;;;;5111066;28;20400;-74
2022/10/03 06:54:48;;;;;;;8.38;1.80;;;10.80;99.90;;;;;;5111888;27;20408;-73
2022/10/03 06:57:20;;;;;;;12.48;1.80;;;10.80;99.90;;;;;;5111289;27;21227;-75
2022/10/03 06:59:54;;;;;;;11.77;1.58;;;10.80;99.90;;;;;;5098360;27;20977;-74
2022/10/03 07:02:25;;;;;;;13.40;1.98;;;10.90;99.90;;;;;;5111288;27;20488;-73
2022/10/03 07:05:22;;;;;;;9.57;1.50;;;10.90;99.90;;;;;;5119918;27;20494;-73
2022/10/03 07:08:06;;;;;;;8.80;1.50;;;11.00;99.90;;;;;;5130391;27;20481;-74
2022/10/03 07:10:50;;;;;;;9.38;1.65;;;11.00;99.90;;;;;;5114390;27;20534;-74
2022/10/03 07:13:27;;;;;;;10.45;1.52;;;11.10;99.90;;;;;;5110569;27;20422;-74
2022/10/03 07:16:15;;;;;;;10.35;2.00;;;11.20;99.90;;;;;;5110669;27;20483;-74
2022/10/03 07:19:02;;;;;;;9.63;1.52;;;11.20;99.90;;;;;;5110669;27;20452;-74
2022/10/03 07:21:55;;;;;;;10.85;2.00;;;11.30;99.90;;;;;;5110567;27;20817;-73
2022/10/03 07:25:09;;;;;;;11.13;1.50;;;11.40;99.90;;;;;;5101158;27;20461;-74
2022/10/03 07:27:52;;;;;;;8.88;1.30;;;11.50;99.90;;;;;;5111213;27;20454;-73
2022/10/03 07:30:20;;;;;;;7.50;1.37;;;11.60;99.90;;;;;;5111780;27;20424;-74
2022/10/03 07:33:03;;;;;;;10.25;1.45;;;11.60;99.90;;;;;;5110491;27;20464;-74
2022/10/03 07:39:08;;;;;;;8.95;0.90;;;11.80;99.90;;;;;;5110573;27;20504;-73
2022/10/03 07:41:59;;;;;;;6.05;1.00;;;12.00;99.90;;;;;;5110251;27;20895;-73
2022/10/03 07:44:50;;;;;;;8.15;1.15;;;12.10;99.90;;;;;;5111142;27;20400;-74
2022/10/03 07:47:41;;;;;;;9.52;1.45;;;12.20;99.90;;;;;;5108657;27;20439;-73
2022/10/03 07:50:49;;;;;;;9.13;0.93;;;12.40;99.90;;;;;;5079960;28;20432;-73
2022/10/03 07:53:36;;;;;;;9.00;1.83;;;12.50;99.90;;;;;;5109945;28;20408;-73
2022/10/03 07:56:39;;;;;;;8.40;1.40;;;12.60;99.90;;;;;;5110271;27;20830;-74
2022/10/03 07:59:33;;;;;;;8.02;0.82;;;12.70;99.90;;;;;;5109380;28;20401;-73
2022/10/03 08:02:11;;;;;;;9.53;1.27;;;12.70;99.90;;;;;;5122389;27;20407;-74
2022/10/03 08:05:11;;;;;;;6.50;0.60;;;12.80;99.90;;;;;;5114950;27;20493;-74
2022/10/03 08:08:02;;;;;;;6.43;0.87;;;12.90;99.90;;;;;;5129542;27;20785;-74
2022/10/03 08:11:06;;;;;;;8.55;1.40;;;13.00;99.90;;;;;;5128852;27;20912;-73
2022/10/03 08:13:42;;;;;;;10.43;1.20;;;13.10;99.90;;;;;;5129435;27;20407;-74
2022/10/03 08:16:21;;;;;;;6.07;0.70;;;13.10;99.90;;;;;;5121380;27;20457;-74
2022/10/03 08:19:14;;;;;;;7.70;0.93;;;13.20;99.90;;;;;;5112132;27;20450;-74
2022/10/03 08:21:55;;;;;;;7.90;0.90;;;13.30;99.90;;;;;;5115477;27;20411;-74
2022/10/03 08:24:36;;;;;;;8.70;1.20;;;13.40;99.90;;;;;;5118154;27;21048;-74
2022/10/03 08:27:04;;;;;;;10.40;1.20;;;13.50;99.90;;;;;;5115412;27;20407;-74
2022/10/03 08:29:48;;;;;;;8.20;0.90;;;13.60;99.90;;;;;;5129567;27;20402;-74
2022/10/03 08:32:42;;;;;;;8.53;1.10;;;13.60;99.90;;;;;;5104462;27;20435;-74
2022/10/03 08:35:38;;;;;;;8.53;1.07;;;13.70;99.90;;;;;;5127131;27;20410;-73
2022/10/03 08:38:47;;;;;;;9.48;1.60;;;13.80;99.90;;;;;;5127967;27;20809;-73
2022/10/03 08:41:18;;;;;;;6.50;0.93;;;13.90;99.90;;;;;;5127504;27;20888;-74
2022/10/03 08:44:14;;;;;;;8.68;0.90;;;14.00;99.90;;;;;;5128368;27;20409;-74
2022/10/03 08:46:57;;;;;;;9.65;1.00;;;14.10;99.90;;;;;;5128094;27;20904;-74
2022/10/03 08:49:53;;;;;;;7.97;0.85;;;14.10;99.90;;;;;;5125575;27;20495;-74
2022/10/03 08:52:28;;;;;;;7.30;1.23;;;14.20;99.90;;;;;;5127912;27;20410;-73
2022/10/03 08:54:56;;;;;;;7.03;0.93;;;14.30;99.90;;;;;;5104072;27;20414;-74
2022/10/03 08:57:49;;;;;;;8.57;1.10;;;14.40;99.90;;;;;;5126799;27;20409;-73
2022/10/03 09:00:20;;;;;;;8.05;0.80;;;14.50;99.90;;;;;;5128377;27;20931;-74
2022/10/03 09:03:01;;;;;;;7.57;0.70;;;14.70;99.90;;;;;;5127085;27;20447;-74
2022/10/03 09:05:48;;;;;;;10.20;0.90;;;15.30;99.90;;;;;;5114223;27;20977;-72
2022/10/03 09:08:32;;;;;;;6.97;1.10;;;16.40;99.90;;;;;;5106751;28;20409;-72
2022/10/03 09:11:15;;;;;;;5.70;0.70;;;17.80;99.90;;;;;;5107822;28;20836;-72
2022/10/03 09:14:14;;;;;;;6.35;0.80;;;18.70;99.90;;;;;;5108082;28;20491;-71
2022/10/03 09:16:57;;;;;;;6.03;0.70;;;19.60;99.90;;;;;;5107499;28;20412;-72
2022/10/03 09:19:54;;;;;;;6.82;0.88;;;20.30;99.90;;;;;;5107946;28;20936;-72
2022/10/03 09:23:01;;;;;;;7.18;0.88;;;21.00;99.90;;;;;;5119511;27;20908;-72
2022/10/03 09:25:58;;;;;;;7.40;0.90;;;21.50;99.90;;;;;;5089403;28;20977;-72
2022/10/03 09:28:48;;;;;;;6.43;0.93;;;21.70;99.90;;;;;;5106405;28;20405;-72
2022/10/03 09:31:47;;;;;;;6.60;0.90;;;22.00;99.90;;;;;;5118692;27;20456;-72
2022/10/03 09:34:34;;;;;;;5.22;0.80;;;22.30;99.90;;;;;;5108702;27;20489;-72
2022/10/03 09:37:30;;;;;;;5.90;0.80;;;22.70;99.90;;;;;;5128278;27;20445;-72
2022/10/03 09:39:56;;;;;;;6.37;0.90;;;23.10;99.90;;;;;;5127153;27;20482;-72
2022/10/03 09:43:16;;;;;;;6.05;1.08;;;23.60;99.90;;;;;;5128011;27;20470;-73
2022/10/03 09:45:59;;;;;;;6.50;0.90;;;24.00;99.40;;;;;;5089696;27;20943;-72
2022/10/03 09:48:49;;;;;;;5.75;0.75;;;24.30;98.10;;;;;;5102160;27;20441;-72
2022/10/03 09:51:45;;;;;;;5.25;1.02;;;24.30;96.30;;;;;;5127370;27;20832;-72
2022/10/03 09:54:23;;;;;;;5.72;0.70;;;24.20;97.10;;;;;;5126772;27;20438;-71
2022/10/03 09:57:23;;;;;;;5.20;0.60;;;24.30;95.10;;;;;;5127667;27;20418;-72
2022/10/03 10:00:14;;;;;;;4.87;0.70;;;24.40;95.70;;;;;;5103391;28;20489;-72
2022/10/03 10:03:04;;;;;;;5.70;0.80;;;24.50;93.70;;;;;;5126898;27;20967;-72
2022/10/03 10:05:33;;;;;;;4.75;0.50;;;24.60;94.90;;;;;;5127651;27;20406;-72
2022/10/03 10:08:24;;;;;;;4.75;0.68;;;24.90;92.60;;;;;;5127709;27;20892;-71
2022/10/03 10:10:56;;;;;;;6.22;0.75;;;25.00;92.20;;;;;;5127241;27;20429;-72
2022/10/03 10:13:32;;;;;;;4.43;0.77;;;25.10;93.00;;;;;;5127417;27;20407;-72
2022/10/03 10:16:26;;;;;;;5.60;0.90;;;25.20;91.90;;;;;;5131335;27;20772;-72
2022/10/03 10:19:19;;;;;;;3.97;0.50;;;25.20;92.20;;;;;;5126520;27;20416;-72
2022/10/03 10:22:12;;;;;;;5.10;0.70;;;25.20;92.80;;;;;;5125595;27;20403;-72
2022/10/03 10:24:57;;;;;;;4.22;0.50;;;24.80;92.00;;;;;;5130378;27;20985;-72
2022/10/03 10:27:45;;;;;;;4.18;0.55;;;24.00;91.00;;;;;;5106811;27;20406;-71
2022/10/03 10:30:25;;;;;;;4.50;0.52;;;22.90;91.10;;;;;;5129400;27;20916;-72
2022/10/03 10:33:23;;;;;;;4.63;0.57;;;22.10;92.80;;;;;;5130915;27;20399;-72
2022/10/03 10:35:58;;;;;;;3.33;0.50;;;22.50;94.00;;;;;;5110840;27;20411;-72
2022/10/03 10:38:46;;;;;;;4.15;0.52;;;23.50;93.70;;;;;;5129434;27;20864;-72
2022/10/03 10:41:26;;;;;;;3.90;0.63;;;24.30;92.40;;;;;;5136826;27;20395;-72
2022/10/03 10:44:20;;;;;;;4.55;0.80;;;25.00;91.70;;;;;;5138993;27;20406;-72
2022/10/03 10:47:07;;;;;;;5.78;0.68;;;25.40;90.80;;;;;;5139334;27;20407;-72
2022/10/03 10:49:45;;;;;;;3.90;0.70;;;25.40;89.40;;;;;;5135899;27;20437;-72
2022/10/03 10:52:31;;;;;;;3.80;0.80;;;25.70;89.90;;;;;;5129922;27;20810;-72
2022/10/03 10:55:24;;;;;;;3.88;0.50;;;25.80;89.40;;;;;;5129591;27;20968;-72
2022/10/03 10:58:09;;;;;;;5.07;0.80;;;26.10;88.10;;;;;;5128969;27;20975;-73
2022/10/03 11:01:14;;;;;;;5.63;0.60;;;26.30;87.60;;;;;;5130689;27;20402;-73
2022/10/03 11:04:17;;;;;;;5.10;0.55;;;26.40;87.80;;;;;;5130481;27;20493;-72
2022/10/03 11:07:25;;;;;;;3.73;0.50;;;26.20;86.30;;;;;;5101591;28;20396;-71
2022/10/03 11:10:15;;;;;;;4.68;0.50;;;26.00;84.90;;;;;;5112903;28;20413;-72
2022/10/03 11:12:49;;;;;;;4.88;0.75;;;25.30;85.80;;;;;;5111749;27;20771;-71
2022/10/03 11:15:52;;;;;;;3.85;0.60;;;24.90;86.20;;;;;;5113407;27;20453;-72
2022/10/03 11:18:51;;;;;;;5.15;0.57;;;24.40;87.50;;;;;;5111552;27;20416;-72
2022/10/03 11:21:32;;;;;;;5.90;0.77;;;24.80;86.60;;;;;;5116237;27;20413;-73
2022/10/03 11:24:35;;;;;;;3.28;0.47;;;24.50;86.80;;;;;;5113057;27;20461;-72
2022/10/03 11:27:25;;;;;;;5.10;0.47;;;24.50;87.20;;;;;;5116214;27;20409;-73
2022/10/03 11:30:12;;;;;;;4.72;0.47;;;24.70;86.60;;;;;;5138660;27;20443;-72
2022/10/03 11:33:03;;;;;;;3.15;0.40;;;24.50;86.50;;;;;;5115251;27;20776;-72
2022/10/03 11:35:43;;;;;;;4.35;0.60;;;24.60;85.50;;;;;;5115876;27;20406;-72
2022/10/03 11:38:32;;;;;;;3.83;0.50;;;24.80;84.80;;;;;;5130107;27;20414;-73
2022/10/03 11:41:24;;;;;;;4.13;0.43;;;25.20;86.10;;;;;;5097220;28;20420;-72
2022/10/03 11:44:20;;;;;;;2.88;0.40;;;25.50;86.20;;;;;;5110355;27;20509;-72
2022/10/03 11:46:58;;;;;;;3.78;0.73;;;26.00;83.10;;;;;;5113086;27;20435;-72
2022/10/03 11:49:52;;;;;;;4.30;0.40;;;26.20;81.80;;;;;;5132226;27;20399;-72
2022/10/03 11:52:33;;;;;;;5.43;0.67;;;26.30;79.70;;;;;;5117196;27;20397;-72
2022/10/03 11:55:32;;;;;;;3.88;0.40;;;26.30;79.70;;;;;;5107677;27;20900;-73
2022/10/03 11:58:33;;;;;;;4.05;0.68;;;26.40;79.60;;;;;;5074347;27;20890;-72
2022/10/03 12:01:22;;;;;;;4.68;0.75;;;26.40;77.60;;;;;;5091447;28;20419;-72
2022/10/03 12:04:08;;;;;;;4.47;0.52;;;26.30;77.80;;;;;;5109859;27;20470;-72
2022/10/03 12:10:11;;;;;;;3.55;0.60;;;26.30;77.50;;;;;;5109871;28;20397;-72
2022/10/03 12:12:49;;;;;;;3.15;0.50;;;26.10;76.20;;;;;;5109932;28;20478;-72
2022/10/03 12:15:14;;;;;;;2.80;0.40;;;25.30;78.30;;;;;;5109969;27;20404;-72
2022/10/03 12:17:49;;;;;;;3.47;0.40;;;25.00;79.20;;;;;;5109324;27;20401;-73
2022/10/03 12:20:23;;;;;;;3.87;0.60;;;24.90;79.90;;;;;;5109534;27;20407;-72
2022/10/03 12:23:07;;;;;;;5.15;0.60;;;24.80;78.60;;;;;;5109373;27;20440;-72
2022/10/03 12:25:40;;;;;;;4.22;0.45;;;24.80;78.50;;;;;;5109589;27;20407;-73
2022/10/03 12:28:27;;;;;;;3.63;0.53;;;25.00;78.30;;;;;;5120619;27;20901;-72
2022/10/03 12:31:18;;;;;;;3.67;0.60;;;25.20;78.10;;;;;;5118549;27;20923;-72
2022/10/03 12:34:15;;;;;;;3.57;0.50;;;25.10;77.00;;;;;;5128715;27;20411;-72
2022/10/03 12:36:49;;;;;;;4.55;0.50;;;24.20;78.20;;;;;;5127067;27;20418;-72
2022/10/03 12:39:24;;;;;;;3.17;0.30;;;23.60;79.90;;;;;;5128606;27;20527;-72
2022/10/03 12:42:21;;;;;;;6.43;0.50;;;23.70;79.90;;;;;;5121166;27;20412;-73
2022/10/03 12:45:35;;;;;;;3.25;0.50;;;23.80;80.20;;;;;;5125096;27;20439;-72
2022/10/03 12:48:25;;;;;;;3.33;0.32;;;24.00;80.50;;;;;;5092885;27;20950;-72
2022/10/03 12:51:16;;;;;;;2.97;0.70;;;23.60;79.60;;;;;;5125877;27;20445;-72
2022/10/03 12:53:51;;;;;;;4.55;0.60;;;23.40;80.50;;;;;;5109763;27;20840;-72
2022/10/03 12:56:32;;;;;;;3.37;0.40;;;23.00;81.10;;;;;;5124842;27;20934;-72
2022/10/03 12:59:09;;;;;;;3.30;0.60;;;22.60;80.60;;;;;;5125262;27;20422;-72
2022/10/03 13:02:01;;;;;;;6.40;0.70;;;22.20;80.50;;;;;;5127205;27;20415;-72
2022/10/03 13:05:13;;;;;;;6.30;0.90;;;21.70;82.50;;;;;;5123017;27;20410;-72
2022/10/03 13:08:01;;;;;;;4.57;0.60;;;21.40;84.10;;;;;;5121605;27;20490;-72
2022/10/03 13:10:40;;;;;;;3.63;0.40;;;21.40;84.60;;;;;;5122561;27;20431;-72
2022/10/03 13:13:30;;;;;;;2.77;0.40;;;21.30;84.70;;;;;;5124378;27;20789;-72
2022/10/03 13:16:15;;;;;;;6.15;0.70;;;21.40;86.20;;;;;;5123745;27;20502;-72
2022/10/03 13:18:50;;;;;;;3.30;0.50;;;21.60;85.80;;;;;;5122485;27;20444;-72
2022/10/03 13:21:18;;;;;;;5.28;0.60;;;21.90;86.00;;;;;;5124733;27;21001;-72
2022/10/03 13:24:03;;;;;;;4.75;0.80;;;22.00;84.60;;;;;;5122061;27;20429;-73
2022/10/03 13:26:34;;;;;;;5.93;0.63;;;22.10;84.70;;;;;;5112476;27;20407;-72
2022/10/03 13:29:12;;;;;;;5.63;0.47;;;22.30;85.60;;;;;;5108264;28;20404;-72
2022/10/03 13:31:56;;;;;;;4.47;0.50;;;22.20;85.50;;;;;;5107969;28;20802;-72
2022/10/03 13:34:25;;;;;;;6.60;1.00;;;22.00;86.40;;;;;;5108210;28;20412;-73
2022/10/03 13:36:57;;;;;;;4.97;0.60;;;21.90;87.10;;;;;;5119776;28;20420;-72
2022/10/03 13:39:52;;;;;;;5.20;0.70;;;21.80;86.50;;;;;;5107851;28;20405;-72
2022/10/03 13:42:52;;;;;;;5.00;0.63;;;21.60;87.10;;;;;;5098516;28;20985;-72
2022/10/03 13:45:23;;;;;;;3.53;0.50;;;21.40;87.50;;;;;;5107891;28;20430;-72
2022/10/03 13:48:00;;;;;;;5.83;0.67;;;21.30;89.30;;;;;;5108503;28;20403;-72
2022/10/03 13:50:41;;;;;;;4.30;0.60;;;21.30;88.80;;;;;;5112197;27;20968;-72
2022/10/03 13:53:17;;;;;;;5.70;0.80;;;21.10;89.60;;;;;;5112234;27;20487;-72
2022/10/03 13:55:51;;;;;;;4.95;0.80;;;21.00;89.10;;;;;;5112555;27;20431;-72
2022/10/03 13:58:45;;;;;;;4.43;0.60;;;20.80;89.20;;;;;;5111223;27;20420;-72
2022/10/03 14:01:37;;;;;;;4.95;0.80;;;20.60;89.90;;;;;;5113664;27;20416;-73
2022/10/03 14:04:27;;;;;;;5.72;0.70;;;20.50;90.00;;;;;;5112258;27;20406;-73
2022/10/03 14:07:06;;;;;;;3.90;0.70;;;20.50;90.60;;;;;;5113033;27;20440;-72
2022/10/03 14:09:35;;;;;;;5.38;0.60;;;20.40;90.50;;;;;;5100712;27;20451;-73
2022/10/03 14:12:18;;;;;;;4.53;0.70;;;20.40;90.70;;;;;;5112329;27;20446;-73
2022/10/03 14:15:11;;;;;;;4.78;0.70;;;20.40;91.20;;;;;;5112566;27;20396;-72
2022/10/03 14:17:56;;;;;;;5.00;0.57;;;20.40;91.00;;;;;;5112312;27;20411;-73
2022/10/03 14:20:28;;;;;;;5.38;0.70;;;20.30;91.00;;;;;;5110765;27;20416;-73
2022/10/03 14:23:01;;;;;;;4.78;0.60;;;20.30;90.90;;;;;;5111133;28;20412;-72
2022/10/03 14:25:39;;;;;;;2.67;0.40;;;20.30;90.70;;;;;;5111444;27;20778;-73
2022/10/03 14:28:28;;;;;;;5.03;0.70;;;20.20;90.60;;;;;;5124935;27;20413;-72
2022/10/03 14:31:13;;;;;;;5.18;0.50;;;20.00;90.50;;;;;;5120356;27;20428;-72
2022/10/03 14:33:50;;;;;;;5.03;0.50;;;20.00;90.70;;;;;;5124618;27;20412;-72